createdAt,value
2019-04-28T00:01:16.190Z,7.40
2019-04-28T00:03:47.818Z,7.40
2019-04-28T00:06:20.936Z,7.30
2019-04-28T00:08:52.738Z,7.40
2019-04-28T00:11:23.762Z,7.40
2019-04-28T00:13:55.648Z,7.40
2019-04-28T00:16:26.336Z,7.50
2019-04-28T00:18:58.230Z,7.50
2019-04-28T00:21:44.610Z,7.40
2019-04-28T00:24:33.169Z,7.40
2019-04-28T00:27:07.414Z,7.50
2019-04-28T00:29:45.384Z,7.50
2019-04-28T00:32:12.505Z,7.50
2019-04-28T00:34:44.067Z,7.50
2019-04-28T00:37:33.718Z,7.60
2019-04-28T00:40:06.724Z,7.50
2019-04-28T00:42:38.079Z,7.50
2019-04-28T00:45:11.540Z,7.50
2019-04-28T00:47:43.235Z,7.60
2019-04-28T00:50:15.107Z,7.60
2019-04-28T00:52:45.820Z,7.50
2019-04-28T00:55:17.651Z,7.50
2019-04-28T00:57:50.937Z,7.50
2019-04-28T01:00:23.579Z,7.50
2019-04-28T01:02:54.939Z,7.60
2019-04-28T01:05:26.710Z,7.60
2019-04-28T01:07:58.105Z,7.50
2019-04-28T01:10:31.353Z,7.50
2019-04-28T01:13:02.655Z,7.50
2019-04-28T01:16:09.433Z,7.40
2019-04-28T01:18:50.268Z,7.50
2019-04-28T01:21:23.904Z,7.50
2019-04-28T01:23:55.565Z,7.40
2019-04-28T01:26:27.211Z,7.50
2019-04-28T01:28:59.670Z,7.60
2019-04-28T01:31:45.019Z,7.50
2019-04-28T01:34:24.405Z,7.50
2019-04-28T01:36:55.431Z,7.50
2019-04-28T01:39:26.709Z,7.50
2019-04-28T01:41:59.562Z,7.40
2019-04-28T01:44:31.060Z,7.30
2019-04-28T01:47:02.327Z,7.30
2019-04-28T01:49:34.135Z,7.30
2019-04-28T01:52:05.871Z,7.30
2019-04-28T01:54:40.197Z,7.40
2019-04-28T01:57:10.618Z,7.40
2019-04-28T01:59:41.939Z,7.40
2019-04-28T02:02:13.696Z,7.40
2019-04-28T02:04:44.952Z,7.30
2019-04-28T02:07:16.260Z,7.30
2019-04-28T02:09:49.064Z,7.30
2019-04-28T02:12:20.793Z,7.40
2019-04-28T02:14:52.189Z,7.40
2019-04-28T02:17:23.473Z,7.30
2019-04-28T02:19:54.697Z,7.40
2019-04-28T02:22:47.934Z,7.30
2019-04-28T02:25:19.569Z,7.30
2019-04-28T02:27:52.501Z,7.20
2019-04-28T02:30:41.116Z,7.20
2019-04-28T02:32:57.801Z,7.20
2019-04-28T02:35:31.685Z,7.20
2019-04-28T02:38:01.631Z,7.30
2019-04-28T02:40:33.119Z,7.20
2019-04-28T02:43:04.046Z,7.10
2019-04-28T02:45:37.555Z,7.10
2019-04-28T02:48:12.557Z,7.10
2019-04-28T02:50:51.722Z,7.10
2019-04-28T02:53:34.477Z,7.10
2019-04-28T02:56:06.030Z,7.10
2019-04-28T02:58:37.447Z,7.10
2019-04-28T03:01:18.594Z,7.10
2019-04-28T03:03:41.079Z,7.10
2019-04-28T03:06:12.982Z,7.10
2019-04-28T03:08:44.942Z,7.10
2019-04-28T03:11:16.789Z,7.00
2019-04-28T03:13:50.832Z,6.90
2019-04-28T03:16:23.166Z,6.90
2019-04-28T03:18:54.946Z,6.90
2019-04-28T03:21:26.717Z,7.00
2019-04-28T03:23:58.274Z,6.90
2019-04-28T03:26:41.392Z,6.80
2019-04-28T03:29:30.545Z,6.80
2019-04-28T03:32:45.796Z,6.80
2019-04-28T03:35:12.763Z,6.80
2019-04-28T03:37:42.885Z,6.70
2019-04-28T03:40:14.139Z,6.80
2019-04-28T03:42:45.442Z,6.80
2019-04-28T03:45:22.632Z,6.90
2019-04-28T03:47:53.889Z,6.90
2019-04-28T03:50:25.507Z,6.90
2019-04-28T03:52:56.814Z,6.80
2019-04-28T03:55:27.753Z,6.80
2019-04-28T03:58:00.920Z,6.90
2019-04-28T04:00:31.720Z,7.00
2019-04-28T04:03:03.281Z,7.00
2019-04-28T04:05:35.208Z,7.00
2019-04-28T04:08:05.601Z,7.00
2019-04-28T04:11:01.833Z,7.00
2019-04-28T04:13:47.051Z,6.90
2019-04-28T04:16:34.722Z,6.90
2019-04-28T04:19:07.439Z,6.90
2019-04-28T04:21:40.738Z,6.80
2019-04-28T04:24:12.240Z,6.80
2019-04-28T04:26:43.478Z,6.80
2019-04-28T04:29:14.724Z,6.80
2019-04-28T04:31:46.269Z,6.80
2019-04-28T04:34:17.275Z,6.70
2019-04-28T04:36:50.920Z,6.90
2019-04-28T04:39:21.352Z,6.90
2019-04-28T04:41:52.647Z,7.00
2019-04-28T04:44:24.449Z,6.90
2019-04-28T04:46:55.678Z,6.80
2019-04-28T04:49:27.179Z,6.90
2019-04-28T04:52:00.416Z,7.00
2019-04-28T04:54:32.786Z,7.10
2019-04-28T04:57:04.104Z,7.10
2019-04-28T04:59:37.224Z,7.20
2019-04-28T05:02:26.698Z,7.20
2019-04-28T05:04:52.247Z,7.20
2019-04-28T05:07:23.783Z,7.20
2019-04-28T05:09:55.526Z,7.10
2019-04-28T05:12:27.125Z,7.20
2019-04-28T05:15:00.515Z,7.20
2019-04-28T05:17:32.309Z,7.20
2019-04-28T05:20:03.649Z,7.20
2019-04-28T05:22:39.969Z,7.20
2019-04-28T05:25:17.295Z,7.20
2019-04-28T05:27:50.039Z,7.20
2019-04-28T05:30:21.654Z,7.20
2019-04-28T05:32:56.187Z,7.30
2019-04-28T05:35:25.600Z,7.30
2019-04-28T05:37:57.424Z,7.40
2019-04-28T05:40:29.564Z,7.30
2019-04-28T05:43:01.255Z,7.40
2019-04-28T05:45:33.359Z,7.40
2019-04-28T05:48:04.900Z,7.40
2019-04-28T05:50:50.083Z,7.50
2019-04-28T05:53:46.332Z,7.50
2019-04-28T05:56:39.813Z,7.40
2019-04-28T05:59:19.310Z,7.50
2019-04-28T06:02:22.572Z,7.40
2019-04-28T06:04:54.272Z,7.60
2019-04-28T06:07:37.760Z,7.50
2019-04-28T06:10:10.142Z,7.50
2019-04-28T06:12:43.496Z,7.60
2019-04-28T06:15:14.318Z,7.60
2019-04-28T06:17:45.856Z,7.60
2019-04-28T06:20:17.405Z,7.70
2019-04-28T06:22:48.366Z,7.70
2019-04-28T06:25:19.690Z,7.80
2019-04-28T06:27:51.253Z,7.80
2019-04-28T06:30:22.768Z,7.90
2019-04-28T06:32:53.462Z,8.00
2019-04-28T06:35:24.387Z,8.10
2019-04-28T06:37:56.010Z,8.30
2019-04-28T06:40:27.239Z,8.20
2019-04-28T06:42:58.328Z,8.40
2019-04-28T06:45:29.833Z,8.40
2019-04-28T06:48:01.707Z,8.50
2019-04-28T06:50:33.639Z,8.50
2019-04-28T06:53:05.204Z,8.60
2019-04-28T06:55:36.800Z,8.90
2019-04-28T06:58:08.512Z,8.80
2019-04-28T07:00:39.448Z,8.90
2019-04-28T07:03:22.703Z,8.90
2019-04-28T07:05:43.549Z,8.80
2019-04-28T07:08:14.510Z,8.90
2019-04-28T07:10:46.600Z,9.00
2019-04-28T07:13:20.580Z,9.00
2019-04-28T07:15:51.049Z,9.10
2019-04-28T07:18:22.602Z,9.00
2019-04-28T07:21:00.264Z,8.90
2019-04-28T07:23:33.124Z,8.80
2019-04-28T07:26:04.380Z,8.80
2019-04-28T07:28:36.235Z,8.80
2019-04-28T07:31:07.569Z,8.80
2019-04-28T07:33:39.220Z,8.80
2019-04-28T07:36:10.281Z,8.90
2019-04-28T07:38:41.916Z,9.00
2019-04-28T07:41:12.903Z,8.90
2019-04-28T07:43:44.285Z,9.00
2019-04-28T07:46:16.236Z,9.10
2019-04-28T07:48:47.511Z,9.10
2019-04-28T07:51:21.355Z,9.40
2019-04-28T07:53:56.362Z,9.60
2019-04-28T07:56:27.784Z,9.60
2019-04-28T07:58:59.420Z,9.60
2019-04-28T08:01:30.787Z,9.60
2019-04-28T08:04:01.817Z,9.60
2019-04-28T08:06:33.125Z,9.70
2019-04-28T08:09:06.473Z,9.70
2019-04-28T08:11:37.834Z,9.60
2019-04-28T08:14:08.821Z,9.80
2019-04-28T08:16:40.781Z,9.80
2019-04-28T08:19:12.408Z,9.80
2019-04-28T08:21:43.674Z,9.90
2019-04-28T08:24:15.548Z,10.00
2019-04-28T08:26:47.095Z,10.10
2019-04-28T08:29:18.665Z,10.20
2019-04-28T08:32:12.671Z,10.30
2019-04-28T08:34:44.451Z,10.40
2019-04-28T08:37:15.498Z,10.70
2019-04-28T08:39:46.757Z,10.80
2019-04-28T08:42:17.776Z,10.80
2019-04-28T08:44:49.088Z,11.00
2019-04-28T08:47:20.526Z,11.00
2019-04-28T08:49:51.862Z,10.90
2019-04-28T08:52:23.451Z,10.90
2019-04-28T08:54:55.063Z,10.90
2019-04-28T08:57:26.621Z,10.90
2019-04-28T08:59:57.588Z,11.00
2019-04-28T09:02:28.589Z,10.90
2019-04-28T09:05:00.219Z,11.30
2019-04-28T09:07:31.781Z,11.30
2019-04-28T09:10:03.764Z,11.40
2019-04-28T09:12:34.745Z,11.30
2019-04-28T09:15:07.351Z,11.20
2019-04-28T09:17:38.924Z,11.40
2019-04-28T09:20:10.530Z,11.40
2019-04-28T09:22:42.137Z,11.60
2019-04-28T09:25:13.694Z,11.60
2019-04-28T09:27:45.552Z,11.70
2019-04-28T09:30:16.993Z,11.90
2019-04-28T09:32:47.957Z,11.90
2019-04-28T09:35:18.923Z,12.00
2019-04-28T09:37:49.823Z,12.00
2019-04-28T09:40:20.577Z,12.00
2019-04-28T09:43:09.637Z,12.20
2019-04-28T09:46:05.997Z,12.40
2019-04-28T09:48:37.410Z,12.30
2019-04-28T09:51:08.635Z,12.30
2019-04-28T09:53:40.061Z,12.30
2019-04-28T09:56:11.465Z,12.30
2019-04-28T09:58:41.883Z,12.10
2019-04-28T10:01:13.189Z,12.00
2019-04-28T10:03:44.749Z,12.00
2019-04-28T10:06:16.016Z,12.20
2019-04-28T10:08:47.676Z,12.50
2019-04-28T10:11:29.963Z,12.70
2019-04-28T10:13:51.921Z,12.50
2019-04-28T10:16:23.362Z,12.20
2019-04-28T10:18:54.682Z,12.10
2019-04-28T10:21:26.368Z,12.10
2019-04-28T10:23:57.467Z,12.10
2019-04-28T10:26:28.744Z,12.00
2019-04-28T10:29:00.906Z,12.20
2019-04-28T10:31:32.313Z,13.30
2019-04-28T10:34:05.636Z,14.00
2019-04-28T10:36:37.025Z,14.80
2019-04-28T10:39:26.595Z,14.50
2019-04-28T10:41:58.172Z,13.80
2019-04-28T10:44:31.432Z,14.50
2019-04-28T10:47:03.069Z,14.90
2019-04-28T10:49:34.438Z,15.00
2019-04-28T10:52:05.860Z,14.60
2019-04-28T10:54:36.337Z,13.90
2019-04-28T10:57:08.206Z,13.60
2019-04-28T10:59:39.831Z,13.50
2019-04-28T11:02:11.393Z,13.60
2019-04-28T11:05:08.584Z,13.30
2019-04-28T11:07:38.270Z,13.30
2019-04-28T11:10:21.156Z,13.00
2019-04-28T11:12:52.419Z,12.90
2019-04-28T11:15:29.372Z,12.70
2019-04-28T11:18:01.272Z,12.50
2019-04-28T11:20:33.536Z,12.40
2019-04-28T11:23:05.221Z,12.40
2019-04-28T11:25:37.105Z,12.60
2019-04-28T11:28:09.487Z,12.80
2019-04-28T11:30:41.218Z,13.70
2019-04-28T11:33:49.950Z,15.00
2019-04-28T11:36:22.520Z,15.70
2019-04-28T11:38:54.084Z,16.60
2019-04-28T11:41:25.066Z,17.30
2019-04-28T11:43:56.784Z,17.70
2019-04-28T11:46:27.958Z,17.70
2019-04-28T11:48:59.259Z,17.30
2019-04-28T11:51:30.619Z,17.20
2019-04-28T11:54:01.783Z,17.10
2019-04-28T11:56:41.231Z,16.40
2019-04-28T11:59:06.783Z,16.20
2019-04-28T12:01:38.379Z,16.20
2019-04-28T12:04:11.877Z,17.20
2019-04-28T12:06:43.278Z,16.80
2019-04-28T12:09:25.814Z,16.60
2019-04-28T12:11:58.125Z,16.40
2019-04-28T12:14:51.517Z,15.80
2019-04-28T12:17:40.633Z,15.40
2019-04-28T12:20:15.856Z,14.90
2019-04-28T12:22:47.230Z,14.60
2019-04-28T12:25:19.629Z,14.00
2019-04-28T12:27:50.931Z,13.80
2019-04-28T12:30:23.237Z,13.50
2019-04-28T12:32:55.371Z,13.00
2019-04-28T12:35:26.380Z,12.60
2019-04-28T12:37:58.024Z,12.20
2019-04-28T12:40:29.986Z,12.00
2019-04-28T12:43:01.261Z,11.50
2019-04-28T12:45:35.280Z,11.10
2019-04-28T12:48:05.782Z,11.10
2019-04-28T12:50:43.173Z,10.90
2019-04-28T12:53:14.750Z,10.80
2019-04-28T12:55:46.315Z,10.80
2019-04-28T12:58:17.836Z,10.70
2019-04-28T13:01:10.857Z,10.60
2019-04-28T13:04:06.807Z,10.50
2019-04-28T13:06:38.668Z,10.60
2019-04-28T13:09:10.842Z,10.60
2019-04-28T13:11:42.299Z,10.50
2019-04-28T13:14:13.592Z,10.50
2019-04-28T13:16:45.221Z,10.50
2019-04-28T13:19:22.638Z,10.60
2019-04-28T13:21:54.600Z,10.70
2019-04-28T13:24:26.557Z,10.50
2019-04-28T13:26:57.916Z,10.60
2019-04-28T13:29:29.400Z,10.90
2019-04-28T13:32:01.045Z,11.10
2019-04-28T13:34:33.782Z,11.10
2019-04-28T13:37:05.657Z,11.30
2019-04-28T13:39:58.809Z,11.60
2019-04-28T13:42:29.447Z,11.90
2019-04-28T13:45:06.438Z,12.00
2019-04-28T13:47:37.848Z,12.50
2019-04-28T13:50:35.512Z,13.50
2019-04-28T13:53:07.858Z,13.60
2019-04-28T13:56:05.640Z,14.50
2019-04-28T13:59:01.978Z,14.60
2019-04-28T14:01:51.614Z,14.90
2019-04-28T14:04:47.834Z,15.40
2019-04-28T14:07:19.589Z,15.80
2019-04-28T14:09:51.436Z,16.30
2019-04-28T14:12:23.348Z,16.40
2019-04-28T14:14:55.559Z,16.40
2019-04-28T14:17:27.493Z,15.90
2019-04-28T14:19:58.413Z,16.10
2019-04-28T14:22:29.589Z,16.40
2019-04-28T14:25:00.312Z,17.50
2019-04-28T14:27:31.089Z,17.20
2019-04-28T14:30:02.071Z,17.00
2019-04-28T14:32:33.686Z,17.40
2019-04-28T14:35:06.192Z,18.00
2019-04-28T14:37:38.143Z,18.50
2019-04-28T14:40:09.386Z,18.40
2019-04-28T14:42:41.611Z,18.40
2019-04-28T14:45:13.511Z,18.50
2019-04-28T14:47:45.300Z,18.40
2019-04-28T14:50:17.368Z,18.30
2019-04-28T14:52:48.453Z,18.50
2019-04-28T14:55:20.957Z,18.30
2019-04-28T14:57:52.541Z,19.00
2019-04-28T15:00:29.878Z,18.50
2019-04-28T15:03:06.093Z,18.60
2019-04-28T15:05:57.106Z,18.70
2019-04-28T15:08:54.748Z,18.70
2019-04-28T15:11:30.236Z,19.00
2019-04-28T15:14:01.767Z,18.80
2019-04-28T15:16:33.666Z,18.20
2019-04-28T15:19:05.313Z,18.30
2019-04-28T15:21:36.639Z,17.80
2019-04-28T15:24:08.420Z,17.40
2019-04-28T15:26:39.791Z,17.10
2019-04-28T15:29:11.091Z,16.00
2019-04-28T15:31:42.742Z,16.10
2019-04-28T15:34:14.342Z,15.80
2019-04-28T15:36:45.647Z,15.40
2019-04-28T15:39:16.632Z,15.50
2019-04-28T15:41:48.304Z,15.00
2019-04-28T15:44:20.008Z,14.40
2019-04-28T15:46:51.690Z,14.40
2019-04-28T15:49:23.690Z,14.30
2019-04-28T15:51:54.962Z,14.20
2019-04-28T15:54:26.342Z,14.20
2019-04-28T15:56:57.284Z,14.10
2019-04-28T15:59:28.872Z,14.50
2019-04-28T16:02:00.387Z,14.90
2019-04-28T16:04:31.173Z,15.40
2019-04-28T16:07:03.096Z,15.10
2019-04-28T16:09:35.166Z,15.00
2019-04-28T16:12:06.762Z,15.30
2019-04-28T16:14:38.044Z,15.20
2019-04-28T16:17:10.118Z,15.60
2019-04-28T16:19:41.455Z,15.50
2019-04-28T16:22:12.765Z,15.20
2019-04-28T16:24:43.829Z,15.10
2019-04-28T16:27:15.722Z,15.40
2019-04-28T16:29:46.454Z,15.60
2019-04-28T16:32:18.173Z,15.50
2019-04-28T16:34:49.143Z,15.40
2019-04-28T16:37:20.685Z,15.00
2019-04-28T16:39:52.316Z,14.60
2019-04-28T16:42:26.264Z,14.30
2019-04-28T16:45:00.689Z,14.60
2019-04-28T16:47:32.378Z,14.80
2019-04-28T16:50:03.668Z,14.80
2019-04-28T16:52:35.264Z,14.80
2019-04-28T16:55:26.474Z,15.30
2019-04-28T16:58:16.429Z,15.40
2019-04-28T17:01:05.927Z,15.10
2019-04-28T17:03:38.021Z,14.80
2019-04-28T17:06:10.101Z,14.70
2019-04-28T17:08:44.516Z,14.60
2019-04-28T17:11:14.635Z,14.70
2019-04-28T17:13:45.784Z,14.40
2019-04-28T17:16:16.281Z,14.20
2019-04-28T17:18:47.791Z,13.80
2019-04-28T17:21:20.266Z,13.70
2019-04-28T17:23:51.900Z,13.60
2019-04-28T17:26:23.711Z,13.40
2019-04-28T17:28:54.980Z,13.10
2019-04-28T17:31:27.387Z,13.10
2019-04-28T17:33:58.831Z,12.90
2019-04-28T17:36:30.564Z,12.80
2019-04-28T17:39:01.929Z,12.70
2019-04-28T17:41:33.906Z,12.50
2019-04-28T17:44:06.708Z,12.40
2019-04-28T17:46:38.135Z,12.60
2019-04-28T17:49:10.400Z,12.70
2019-04-28T17:51:41.193Z,13.00
2019-04-28T17:54:13.263Z,13.10
2019-04-28T17:56:45.146Z,13.00
2019-04-28T17:59:17.262Z,12.90
2019-04-28T18:02:07.868Z,12.60
2019-04-28T18:04:56.227Z,12.70
2019-04-28T18:07:34.269Z,12.50
2019-04-28T18:10:08.065Z,12.40
2019-04-28T18:12:40.064Z,12.10
2019-04-28T18:15:29.425Z,11.70
2019-04-28T18:18:18.429Z,11.30
2019-04-28T18:20:50.344Z,11.70
2019-04-28T18:23:22.213Z,11.90
2019-04-28T18:25:53.382Z,12.10
2019-04-28T18:28:24.726Z,11.90
2019-04-28T18:31:17.644Z,11.50
2019-04-28T18:34:06.789Z,11.30
2019-04-28T18:36:45.030Z,11.00
2019-04-28T18:39:53.386Z,10.90
2019-04-28T18:42:34.512Z,10.70
2019-04-28T18:45:06.630Z,10.50
2019-04-28T18:47:38.481Z,10.40
2019-04-28T18:50:10.492Z,10.40
2019-04-28T18:52:42.118Z,10.40
2019-04-28T18:55:14.276Z,10.50
2019-04-28T18:57:45.413Z,10.30
2019-04-28T19:00:18.279Z,10.30
2019-04-28T19:02:49.882Z,10.10
2019-04-28T19:05:23.013Z,10.20
2019-04-28T19:08:13.151Z,10.30
2019-04-28T19:11:15.602Z,9.90
2019-04-28T19:13:51.168Z,9.90
2019-04-28T19:16:40.865Z,9.70
2019-04-28T19:19:12.589Z,9.60
2019-04-28T19:21:54.476Z,9.50
2019-04-28T19:24:27.143Z,9.30
2019-04-28T19:26:58.519Z,9.30
2019-04-28T19:29:29.995Z,9.20
2019-04-28T19:32:01.677Z,9.00
2019-04-28T19:34:33.145Z,8.90
2019-04-28T19:37:05.088Z,8.90
2019-04-28T19:39:36.908Z,8.90
2019-04-28T19:42:07.951Z,8.90
2019-04-28T19:44:40.258Z,8.80
2019-04-28T19:47:11.983Z,8.80
2019-04-28T19:49:43.192Z,8.70
2019-04-28T19:52:16.313Z,8.70
2019-04-28T19:55:08.052Z,8.70
2019-04-28T19:58:01.236Z,8.60
2019-04-28T20:00:46.667Z,8.50
2019-04-28T20:03:18.764Z,8.60
2019-04-28T20:05:49.621Z,8.60
2019-04-28T20:08:21.877Z,8.50
2019-04-28T20:10:53.900Z,8.50
2019-04-28T20:13:25.477Z,8.40
2019-04-28T20:15:56.800Z,8.30
2019-04-28T20:18:30.700Z,8.10
2019-04-28T20:21:04.366Z,8.10
2019-04-28T20:23:38.945Z,8.10
2019-04-28T20:26:11.359Z,8.00
2019-04-28T20:28:42.565Z,7.90
2019-04-28T20:31:14.163Z,7.90
2019-04-28T20:33:45.652Z,8.00
2019-04-28T20:36:22.641Z,8.00
2019-04-28T20:38:57.915Z,7.90
2019-04-28T20:41:30.178Z,7.80
2019-04-28T20:44:02.141Z,7.70
2019-04-28T20:46:33.758Z,7.70
2019-04-28T20:49:05.386Z,7.60
2019-04-28T20:51:37.194Z,7.60
2019-04-28T20:54:08.767Z,7.40
2019-04-28T20:56:39.526Z,7.50
2019-04-28T20:59:10.796Z,7.30
2019-04-28T21:01:42.064Z,7.20
2019-04-28T21:04:13.599Z,7.20
2019-04-28T21:06:44.543Z,7.20
2019-04-28T21:09:16.172Z,7.10
2019-04-28T21:11:47.798Z,7.20
2019-04-28T21:14:20.841Z,7.10
2019-04-28T21:16:53.024Z,7.10
2019-04-28T21:19:24.287Z,7.00
2019-04-28T21:21:56.407Z,7.00
2019-04-28T21:24:28.031Z,7.00
2019-04-28T21:26:59.430Z,7.10
2019-04-28T21:29:30.696Z,7.10
2019-04-28T21:32:01.703Z,7.30
2019-04-28T21:34:33.427Z,7.20
2019-04-28T21:37:04.714Z,7.20
2019-04-28T21:39:35.701Z,7.10
2019-04-28T21:42:09.097Z,7.00
2019-04-28T21:44:52.637Z,6.90
2019-04-28T21:47:27.079Z,6.80
2019-04-28T21:49:58.369Z,6.70
2019-04-28T21:52:29.497Z,6.70
2019-04-28T21:55:01.392Z,6.70
2019-04-28T21:57:32.901Z,6.60
2019-04-28T22:00:05.174Z,6.50
2019-04-28T22:02:37.055Z,6.40
2019-04-28T22:05:08.280Z,6.30
2019-04-28T22:07:39.942Z,6.30
2019-04-28T22:10:11.178Z,6.40
2019-04-28T22:12:42.543Z,6.50
2019-04-28T22:15:13.952Z,6.50
2019-04-28T22:17:45.231Z,6.40
2019-04-28T22:20:16.214Z,6.30
2019-04-28T22:22:47.471Z,6.30
2019-04-28T22:25:22.795Z,6.30
2019-04-28T22:27:54.376Z,6.30
2019-04-28T22:30:26.420Z,6.30
2019-04-28T22:32:58.331Z,6.30
2019-04-28T22:35:30.380Z,6.20
2019-04-28T22:38:01.667Z,6.10
2019-04-28T22:40:33.602Z,6.00
2019-04-28T22:43:05.214Z,6.00
2019-04-28T22:45:36.921Z,5.90
2019-04-28T22:48:10.465Z,5.80
2019-04-28T22:50:45.481Z,5.80
2019-04-28T22:53:19.402Z,5.80
2019-04-28T22:56:03.411Z,5.70
2019-04-28T22:58:46.985Z,5.70
2019-04-28T23:01:37.247Z,5.70
2019-04-28T23:04:11.760Z,5.60
2019-04-28T23:06:43.064Z,5.50
2019-04-28T23:09:17.463Z,5.50
2019-04-28T23:11:48.790Z,5.60
2019-04-28T23:14:20.667Z,5.50
2019-04-28T23:16:51.328Z,5.40
2019-04-28T23:19:24.468Z,5.50
2019-04-28T23:22:14.287Z,5.40
2019-04-28T23:24:45.566Z,5.50
2019-04-28T23:27:16.496Z,5.40
2019-04-28T23:29:48.441Z,5.40
2019-04-28T23:32:19.738Z,5.30
2019-04-28T23:34:50.983Z,5.30
2019-04-28T23:37:22.298Z,5.30
2019-04-28T23:39:53.860Z,5.30
2019-04-28T23:42:33.879Z,5.20
2019-04-28T23:45:06.306Z,5.20
2019-04-28T23:47:37.533Z,5.20
2019-04-28T23:50:11.852Z,5.30
2019-04-28T23:52:57.670Z,5.40
2019-04-28T23:55:28.931Z,5.40
2019-04-28T23:57:59.868Z,5.50
